sensor_id;sensor_type;location;lat;lon;timestamp;pressure;altitude;pressure_sealevel;temperature;humidity
74474;BME280;62922;-6.168;106.796;2022-10-15T00:00:43;100886.91;;;30.31;62.60
74474;BME280;62922;-6.168;106.796;2022-10-15T00:03:11;100896.81;;;30.28;62.22
74474;BME280;62922;-6.168;106.796;2022-10-15T00:05:37;100908.91;;;30.29;62.42
74474;BME280;62922;-6.168;106.796;2022-10-15T00:08:04;100903.28;;;30.29;62.29
74474;BME280;62922;-6.168;106.796;2022-10-15T00:10:33;100910.22;;;30.31;62.17
74474;BME280;62922;-6.168;106.796;2022-10-15T00:12:58;100918.69;;;30.31;62.33
74474;BME280;62922;-6.168;106.796;2022-10-15T00:15:24;100921.50;;;30.31;62.44
74474;BME280;62922;-6.168;106.796;2022-10-15T00:17:50;100926.00;;;30.32;61.89
74474;BME280;62922;-6.168;106.796;2022-10-15T00:20:16;100938.06;;;30.33;62.05
74474;BME280;62922;-6.168;106.796;2022-10-15T00:22:42;100939.72;;;30.34;62.04
74474;BME280;62922;-6.168;106.796;2022-10-15T00:25:08;100938.88;;;30.33;62.04
74474;BME280;62922;-6.168;106.796;2022-10-15T00:27:34;100943.06;;;30.36;62.13
74474;BME280;62922;-6.168;106.796;2022-10-15T00:30:00;100954.31;;;30.36;62.16
74474;BME280;62922;-6.168;106.796;2022-10-15T00:32:28;100959.09;;;30.35;62.08
74474;BME280;62922;-6.168;106.796;2022-10-15T00:34:54;100953.47;;;30.35;61.84
74474;BME280;62922;-6.168;106.796;2022-10-15T00:37:20;100957.13;;;30.36;62.05
74474;BME280;62922;-6.168;106.796;2022-10-15T00:39:46;100955.63;;;30.38;61.85
74474;BME280;62922;-6.168;106.796;2022-10-15T00:42:12;100956.47;;;30.39;61.79
74474;BME280;62922;-6.168;106.796;2022-10-15T00:49:37;100962.31;;;30.51;62.02
74474;BME280;62922;-6.168;106.796;2022-10-15T00:52:08;100965.78;;;30.48;61.65
74474;BME280;62922;-6.168;106.796;2022-10-15T00:54:37;100961.31;;;30.47;61.64
74474;BME280;62922;-6.168;106.796;2022-10-15T00:57:05;100957.66;;;30.46;61.52
74474;BME280;62922;-6.168;106.796;2022-10-15T00:59:32;100966.09;;;30.46;61.67
74474;BME280;62922;-6.168;106.796;2022-10-15T01:01:59;100972.56;;;30.47;61.92
74474;BME280;62922;-6.168;106.796;2022-10-15T01:04:25;100966.44;;;30.45;61.44
74474;BME280;62922;-6.168;106.796;2022-10-15T01:06:52;100962.63;;;30.49;61.82
74474;BME280;62922;-6.168;106.796;2022-10-15T01:09:18;100964.63;;;30.49;61.90
74474;BME280;62922;-6.168;106.796;2022-10-15T01:11:45;100965.78;;;30.48;61.48
74474;BME280;62922;-6.168;106.796;2022-10-15T01:21:39;100959.81;;;30.49;61.59
74474;BME280;62922;-6.168;106.796;2022-10-15T01:24:17;100963.47;;;30.50;61.51
74474;BME280;62922;-6.168;106.796;2022-10-15T01:31:51;100967.28;;;30.54;61.11
74474;BME280;62922;-6.168;106.796;2022-10-15T01:34:23;100951.75;;;30.56;60.95
74474;BME280;62922;-6.168;106.796;2022-10-15T01:39:21;100957.84;;;30.58;60.37
74474;BME280;62922;-6.168;106.796;2022-10-15T01:41:51;100951.25;;;30.63;60.31
74474;BME280;62922;-6.168;106.796;2022-10-15T01:44:19;100956.22;;;30.66;60.13
74474;BME280;62922;-6.168;106.796;2022-10-15T01:46:49;100954.22;;;30.66;59.91
74474;BME280;62922;-6.168;106.796;2022-10-15T01:49:20;100943.47;;;30.68;59.21
74474;BME280;62922;-6.168;106.796;2022-10-15T01:51:52;100938.84;;;30.73;59.82
74474;BME280;62922;-6.168;106.796;2022-10-15T01:54:24;100933.53;;;30.71;58.57
74474;BME280;62922;-6.168;106.796;2022-10-15T01:56:51;100928.06;;;30.75;58.28
74474;BME280;62922;-6.168;106.796;2022-10-15T01:59:19;100935.19;;;30.81;58.66
74474;BME280;62922;-6.168;106.796;2022-10-15T02:01:46;100929.75;;;30.84;58.47
74474;BME280;62922;-6.168;106.796;2022-10-15T02:06:41;100930.78;;;30.97;56.92
74474;BME280;62922;-6.168;106.796;2022-10-15T02:12:16;100939.22;;;31.14;55.92
74474;BME280;62922;-6.168;106.796;2022-10-15T02:14:26;100941.56;;;31.20;55.59
74474;BME280;62922;-6.168;106.796;2022-10-15T02:16:55;100924.81;;;31.24;55.91
74474;BME280;62922;-6.168;106.796;2022-10-15T02:21:58;100933.75;;;31.34;55.89
74474;BME280;62922;-6.168;106.796;2022-10-15T02:24:31;100900.09;;;31.21;55.51
74474;BME280;62922;-6.168;106.796;2022-10-15T02:27:02;100927.78;;;31.44;55.61
74474;BME280;62922;-6.168;106.796;2022-10-15T02:29:30;100928.78;;;31.48;55.82
74474;BME280;62922;-6.168;106.796;2022-10-15T02:31:57;100931.25;;;31.50;55.01
74474;BME280;62922;-6.168;106.796;2022-10-15T02:34:26;100932.75;;;31.56;54.58
74474;BME280;62922;-6.168;106.796;2022-10-15T02:36:53;100928.09;;;31.60;54.35
74474;BME280;62922;-6.168;106.796;2022-10-15T02:39:20;100919.78;;;31.63;54.74
74474;BME280;62922;-6.168;106.796;2022-10-15T02:41:48;100928.91;;;31.69;55.08
74474;BME280;62922;-6.168;106.796;2022-10-15T02:44:14;100924.75;;;31.75;54.40
74474;BME280;62922;-6.168;106.796;2022-10-15T02:46:40;100917.28;;;31.79;54.33
74474;BME280;62922;-6.168;106.796;2022-10-15T02:49:06;100910.25;;;31.85;54.20
74474;BME280;62922;-6.168;106.796;2022-10-15T02:51:33;100908.63;;;31.93;53.32
74474;BME280;62922;-6.168;106.796;2022-10-15T02:54:00;100907.63;;;31.97;54.07
74474;BME280;62922;-6.168;106.796;2022-10-15T02:56:26;100904.94;;;32.01;52.85
74474;BME280;62922;-6.168;106.796;2022-10-15T02:58:52;100915.88;;;32.02;53.35
74474;BME280;62922;-6.168;106.796;2022-10-15T03:01:18;100917.53;;;32.03;52.78
74474;BME280;62922;-6.168;106.796;2022-10-15T03:03:44;100915.69;;;32.07;52.51
74474;BME280;62922;-6.168;106.796;2022-10-15T03:06:10;100917.38;;;32.08;51.60
74474;BME280;62922;-6.168;106.796;2022-10-15T03:08:36;100909.69;;;32.09;52.02
74474;BME280;62922;-6.168;106.796;2022-10-15T03:11:02;100905.03;;;32.13;52.23
74474;BME280;62922;-6.168;106.796;2022-10-15T03:13:28;100899.03;;;32.14;52.02
74474;BME280;62922;-6.168;106.796;2022-10-15T03:15:54;100897.41;;;32.13;50.98
74474;BME280;62922;-6.168;106.796;2022-10-15T03:18:20;100898.72;;;32.16;51.01
74474;BME280;62922;-6.168;106.796;2022-10-15T03:23:14;100899.03;;;32.14;50.48
74474;BME280;62922;-6.168;106.796;2022-10-15T03:25:40;100893.53;;;32.18;51.39
74474;BME280;62922;-6.168;106.796;2022-10-15T03:28:06;100883.44;;;32.17;51.40
74474;BME280;62922;-6.168;106.796;2022-10-15T03:30:34;100885.06;;;32.18;51.49
74474;BME280;62922;-6.168;106.796;2022-10-15T03:33:00;100879.44;;;32.18;51.10
74474;BME280;62922;-6.168;106.796;2022-10-15T03:35:26;100870.81;;;32.14;51.29
74474;BME280;62922;-6.168;106.796;2022-10-15T03:37:52;100876.59;;;32.18;50.56
74474;BME280;62922;-6.168;106.796;2022-10-15T03:40:17;100874.28;;;32.20;51.00
74474;BME280;62922;-6.168;106.796;2022-10-15T03:42:43;100879.44;;;32.18;51.30
74474;BME280;62922;-6.168;106.796;2022-10-15T03:45:11;100874.13;;;32.16;51.36
74474;BME280;62922;-6.168;106.796;2022-10-15T03:47:40;100874.28;;;32.20;51.05
74474;BME280;62922;-6.168;106.796;2022-10-15T03:50:06;100874.63;;;32.18;51.51
74474;BME280;62922;-6.168;106.796;2022-10-15T03:52:32;100866.97;;;32.19;51.09
74474;BME280;62922;-6.168;106.796;2022-10-15T03:55:00;100862.97;;;32.20;51.25
74474;BME280;62922;-6.168;106.796;2022-10-15T03:57:26;100861.00;;;32.20;51.49
74474;BME280;62922;-6.168;106.796;2022-10-15T03:59:52;100849.69;;;32.20;52.01
74474;BME280;62922;-6.168;106.796;2022-10-15T04:02:18;100855.34;;;32.20;52.06
74474;BME280;62922;-6.168;106.796;2022-10-15T04:04:44;100856.53;;;32.19;52.54
74474;BME280;62922;-6.168;106.796;2022-10-15T04:07:09;100852.88;;;32.19;52.33
74474;BME280;62922;-6.168;106.796;2022-10-15T04:09:35;100849.41;;;32.13;52.64
74474;BME280;62922;-6.168;106.796;2022-10-15T04:12:01;100848.63;;;32.04;52.99
74474;BME280;62922;-6.168;106.796;2022-10-15T04:14:27;100845.38;;;31.94;54.28
74474;BME280;62922;-6.168;106.796;2022-10-15T04:16:54;100836.41;;;31.83;55.70
74474;BME280;62922;-6.168;106.796;2022-10-15T04:19:19;100841.75;;;31.76;55.44
74474;BME280;62922;-6.168;106.796;2022-10-15T04:21:45;100821.00;;;31.72;56.61
74474;BME280;62922;-6.168;106.796;2022-10-15T04:24:12;100825.84;;;31.72;56.33
74474;BME280;62922;-6.168;106.796;2022-10-15T04:26:38;100818.88;;;31.69;56.74
74474;BME280;62922;-6.168;106.796;2022-10-15T04:29:04;100818.88;;;31.69;56.97
74474;BME280;62922;-6.168;106.796;2022-10-15T04:31:30;100816.53;;;31.71;57.02
74474;BME280;62922;-6.168;106.796;2022-10-15T04:33:56;100815.84;;;31.74;56.60
74474;BME280;62922;-6.168;106.796;2022-10-15T04:36:21;100815.84;;;31.74;56.23
74474;BME280;62922;-6.168;106.796;2022-10-15T04:38:47;100813.88;;;31.75;56.83
74474;BME280;62922;-6.168;106.796;2022-10-15T04:41:13;100813.03;;;31.74;57.02
74474;BME280;62922;-6.168;106.796;2022-10-15T04:43:39;100806.59;;;31.74;57.23
74474;BME280;62922;-6.168;106.796;2022-10-15T04:46:05;100802.94;;;31.73;57.12
74474;BME280;62922;-6.168;106.796;2022-10-15T04:48:32;100797.09;;;31.78;57.47
74474;BME280;62922;-6.168;106.796;2022-10-15T04:53:27;100779.28;;;31.86;57.06
74474;BME280;62922;-6.168;106.796;2022-10-15T04:55:58;100776.44;;;31.95;56.48
74474;BME280;62922;-6.168;106.796;2022-10-15T04:58:24;100777.44;;;31.99;56.55
74474;BME280;62922;-6.168;106.796;2022-10-15T05:00:50;100763.44;;;32.02;56.22
74474;BME280;62922;-6.168;106.796;2022-10-15T05:03:16;100761.13;;;32.04;56.46
74474;BME280;62922;-6.168;106.796;2022-10-15T05:05:41;100755.47;;;32.04;56.49
74474;BME280;62922;-6.168;106.796;2022-10-15T05:08:07;100749.13;;;32.07;56.26
74474;BME280;62922;-6.168;106.796;2022-10-15T05:10:36;100750.31;;;32.06;56.14
74474;BME280;62922;-6.168;106.796;2022-10-15T05:13:02;100743.00;;;32.05;56.76
74474;BME280;62922;-6.168;106.796;2022-10-15T05:15:28;100740.88;;;32.02;57.07
74474;BME280;62922;-6.168;106.796;2022-10-15T05:17:54;100739.19;;;32.01;56.81
74474;BME280;62922;-6.168;106.796;2022-10-15T05:20:20;100732.06;;;32.04;56.57
74474;BME280;62922;-6.168;106.796;2022-10-15T05:22:46;100722.88;;;32.07;56.58
74474;BME280;62922;-6.168;106.796;2022-10-15T05:25:12;100730.34;;;32.11;56.61
74474;BME280;62922;-6.168;106.796;2022-10-15T05:27:38;100722.00;;;32.15;56.75
74474;BME280;62922;-6.168;106.796;2022-10-15T05:30:03;100718.66;;;32.21;56.48
74474;BME280;62922;-6.168;106.796;2022-10-15T05:32:29;100710.44;;;32.28;56.39
74474;BME280;62922;-6.168;106.796;2022-10-15T05:34:58;100722.00;;;32.35;56.57
74474;BME280;62922;-6.168;106.796;2022-10-15T05:37:24;100712.50;;;32.40;56.18
74474;BME280;62922;-6.168;106.796;2022-10-15T05:39:50;100715.47;;;32.43;56.55
74474;BME280;62922;-6.168;106.796;2022-10-15T05:42:16;100709.16;;;32.46;56.14
74474;BME280;62922;-6.168;106.796;2022-10-15T05:44:42;100691.72;;;32.44;55.82
74474;BME280;62922;-6.168;106.796;2022-10-15T05:47:08;100697.38;;;32.44;56.41
74474;BME280;62922;-6.168;106.796;2022-10-15T05:49:36;100689.38;;;32.46;56.46
74474;BME280;62922;-6.168;106.796;2022-10-15T05:52:02;100693.03;;;32.47;56.17
74474;BME280;62922;-6.168;106.796;2022-10-15T05:54:28;100682.91;;;32.46;56.05
74474;BME280;62922;-6.168;106.796;2022-10-15T05:56:54;100685.59;;;32.42;56.04
74474;BME280;62922;-6.168;106.796;2022-10-15T05:59:20;100675.16;;;32.34;56.79
74474;BME280;62922;-6.168;106.796;2022-10-15T06:01:46;100671.84;;;32.32;56.94
74474;BME280;62922;-6.168;106.796;2022-10-15T06:04:11;100674.69;;;32.32;56.37
74474;BME280;62922;-6.168;106.796;2022-10-15T06:06:37;100675.50;;;32.33;56.63
74474;BME280;62922;-6.168;106.796;2022-10-15T06:09:03;100672.16;;;32.39;56.31
74474;BME280;62922;-6.168;106.796;2022-10-15T06:11:30;100674.06;;;32.47;56.08
74474;BME280;62922;-6.168;106.796;2022-10-15T06:13:56;100670.28;;;32.43;56.63
74474;BME280;62922;-6.168;106.796;2022-10-15T06:16:22;100664.69;;;32.35;56.85
74474;BME280;62922;-6.168;106.796;2022-10-15T06:18:51;100667.25;;;32.28;56.58
74474;BME280;62922;-6.168;106.796;2022-10-15T06:21:17;100658.69;;;32.36;56.88
74474;BME280;62922;-6.168;106.796;2022-10-15T06:23:43;100660.50;;;32.41;56.85
74474;BME280;62922;-6.168;106.796;2022-10-15T06:26:10;100658.31;;;32.46;56.56
74474;BME280;62922;-6.168;106.796;2022-10-15T06:28:36;100654.66;;;32.46;56.87
74474;BME280;62922;-6.168;106.796;2022-10-15T06:31:02;100643.22;;;32.42;56.54
74474;BME280;62922;-6.168;106.796;2022-10-15T06:33:28;100647.00;;;32.46;56.86
74474;BME280;62922;-6.168;106.796;2022-10-15T06:35:54;100649.00;;;32.46;56.46
74474;BME280;62922;-6.168;106.796;2022-10-15T06:38:20;100651.00;;;32.45;57.08
74474;BME280;62922;-6.168;106.796;2022-10-15T06:40:46;100640.53;;;32.46;56.95
74474;BME280;62922;-6.168;106.796;2022-10-15T06:43:12;100631.47;;;32.52;56.92
74474;BME280;62922;-6.168;106.796;2022-10-15T06:45:39;100621.84;;;32.53;56.47
74474;BME280;62922;-6.168;106.796;2022-10-15T06:48:06;100629.13;;;32.54;56.76
74474;BME280;62922;-6.168;106.796;2022-10-15T06:50:32;100631.47;;;32.52;56.43
74474;BME280;62922;-6.168;106.796;2022-10-15T06:52:59;100634.78;;;32.54;56.40
74474;BME280;62922;-6.168;106.796;2022-10-15T06:55:24;100628.88;;;32.47;57.16
74474;BME280;62922;-6.168;106.796;2022-10-15T06:57:50;100619.59;;;32.47;56.81
74474;BME280;62922;-6.168;106.796;2022-10-15T07:00:16;100620.75;;;32.46;57.34
74474;BME280;62922;-6.168;106.796;2022-10-15T07:02:43;100612.63;;;32.44;56.95
74474;BME280;62922;-6.168;106.796;2022-10-15T07:05:08;100618.75;;;32.46;56.92
74474;BME280;62922;-6.168;106.796;2022-10-15T07:07:34;100618.63;;;32.43;57.32
74474;BME280;62922;-6.168;106.796;2022-10-15T07:10:00;100612.63;;;32.44;57.65
74474;BME280;62922;-6.168;106.796;2022-10-15T07:12:26;100621.38;;;32.51;57.47
74474;BME280;62922;-6.168;106.796;2022-10-15T07:14:54;100621.13;;;32.56;56.74
74474;BME280;62922;-6.168;106.796;2022-10-15T07:17:23;100608.69;;;32.58;56.66
74474;BME280;62922;-6.168;106.796;2022-10-15T07:19:49;100600.06;;;32.54;56.89
74474;BME280;62922;-6.168;106.796;2022-10-15T07:22:17;100577.50;;;32.33;57.51
74474;BME280;62922;-6.168;106.796;2022-10-15T07:24:43;100598.41;;;32.53;57.02
74474;BME280;62922;-6.168;106.796;2022-10-15T07:27:09;100600.06;;;32.54;57.01
74474;BME280;62922;-6.168;106.796;2022-10-15T07:29:35;100591.81;;;32.49;57.80
74474;BME280;62922;-6.168;106.796;2022-10-15T07:32:01;100590.78;;;32.53;57.45
74474;BME280;62922;-6.168;106.796;2022-10-15T07:34:28;100592.06;;;32.56;56.97
74474;BME280;62922;-6.168;106.796;2022-10-15T07:36:53;100587.03;;;32.62;57.17
74474;BME280;62922;-6.168;106.796;2022-10-15T07:39:19;100573.09;;;32.56;57.19
74474;BME280;62922;-6.168;106.796;2022-10-15T07:41:45;100570.63;;;32.55;57.18
74474;BME280;62922;-6.168;106.796;2022-10-15T07:44:11;100579.94;;;32.55;57.33
74474;BME280;62922;-6.168;106.796;2022-10-15T07:46:37;100580.44;;;32.58;57.16
74474;BME280;62922;-6.168;106.796;2022-10-15T07:49:02;100586.56;;;32.60;57.54
74474;BME280;62922;-6.168;106.796;2022-10-15T07:51:31;100586.88;;;32.58;57.23
74474;BME280;62922;-6.168;106.796;2022-10-15T07:53:57;100591.59;;;32.54;57.43
74474;BME280;62922;-6.168;106.796;2022-10-15T07:56:23;100590.41;;;32.55;57.36
74474;BME280;62922;-6.168;106.796;2022-10-15T07:58:49;100589.84;;;32.62;57.38
74474;BME280;62922;-6.168;106.796;2022-10-15T08:01:16;100601.16;;;32.62;57.17
74474;BME280;62922;-6.168;106.796;2022-10-15T08:03:45;100599.50;;;32.61;57.86
74474;BME280;62922;-6.168;106.796;2022-10-15T08:06:11;100597.38;;;32.58;57.94
74474;BME280;62922;-6.168;106.796;2022-10-15T08:08:37;100601.84;;;32.58;57.40
74474;BME280;62922;-6.168;106.796;2022-10-15T08:11:03;100608.44;;;32.63;57.21
74474;BME280;62922;-6.168;106.796;2022-10-15T08:13:29;100602.78;;;32.63;57.77
74474;BME280;62922;-6.168;106.796;2022-10-15T08:15:56;100597.03;;;32.59;57.88
74474;BME280;62922;-6.168;106.796;2022-10-15T08:18:22;100603.69;;;32.54;58.32
74474;BME280;62922;-6.168;106.796;2022-10-15T08:20:48;100602.28;;;32.48;58.10
74474;BME280;62922;-6.168;106.796;2022-10-15T08:23:14;100605.38;;;32.55;58.30
74474;BME280;62922;-6.168;106.796;2022-10-15T08:25:40;100610.31;;;32.58;58.41
74474;BME280;62922;-6.168;106.796;2022-10-15T08:28:06;100609.97;;;32.60;57.67
74474;BME280;62922;-6.168;106.796;2022-10-15T08:30:36;100605.50;;;32.59;58.05
74474;BME280;62922;-6.168;106.796;2022-10-15T08:33:02;100602.19;;;32.57;57.98
74474;BME280;62922;-6.168;106.796;2022-10-15T08:35:28;100615.47;;;32.56;58.35
74474;BME280;62922;-6.168;106.796;2022-10-15T08:37:54;100609.03;;;32.56;58.22
74474;BME280;62922;-6.168;106.796;2022-10-15T08:40:20;100603.03;;;32.58;58.51
74474;BME280;62922;-6.168;106.796;2022-10-15T08:42:46;100619.28;;;32.61;58.15
74474;BME280;62922;-6.168;106.796;2022-10-15T08:48:00;100617.81;;;32.54;58.13
74474;BME280;62922;-6.168;106.796;2022-10-15T08:50:47;100630.81;;;32.55;58.58
74474;BME280;62922;-6.168;106.796;2022-10-15T08:53:18;100628.81;;;32.56;58.25
74474;BME280;62922;-6.168;106.796;2022-10-15T08:55:47;100630.09;;;32.58;58.00
74474;BME280;62922;-6.168;106.796;2022-10-15T09:01:00;100609.16;;;32.60;58.00
74474;BME280;62922;-6.168;106.796;2022-10-15T09:13:42;100614.97;;;32.42;59.12
74474;BME280;62922;-6.168;106.796;2022-10-15T09:16:11;100608.97;;;32.44;58.48
74474;BME280;62922;-6.168;106.796;2022-10-15T09:18:45;100613.78;;;32.43;59.13
74474;BME280;62922;-6.168;106.796;2022-10-15T09:21:11;100613.47;;;32.45;59.10
74474;BME280;62922;-6.168;106.796;2022-10-15T09:23:40;100616.78;;;32.47;58.50
74474;BME280;62922;-6.168;106.796;2022-10-15T09:28:42;100625.69;;;32.49;58.88
74474;BME280;62922;-6.168;106.796;2022-10-15T09:31:11;100634.16;;;32.49;58.41
74474;BME280;62922;-6.168;106.796;2022-10-15T09:43:41;100690.47;;;32.33;59.30
74474;BME280;62922;-6.168;106.796;2022-10-15T09:46:09;100700.09;;;32.32;59.13
74474;BME280;62922;-6.168;106.796;2022-10-15T09:51:23;100726.69;;;32.31;59.01
74474;BME280;62922;-6.168;106.796;2022-10-15T09:56:21;100748.19;;;32.24;58.46
74474;BME280;62922;-6.168;106.796;2022-10-15T09:58:51;100747.22;;;32.20;59.09
74474;BME280;62922;-6.168;106.796;2022-10-15T10:01:20;100756.38;;;32.17;59.13
74474;BME280;62922;-6.168;106.796;2022-10-15T10:03:50;100762.09;;;32.08;58.57
74474;BME280;62922;-6.168;106.796;2022-10-15T10:06:16;100770.06;;;32.06;58.93
74474;BME280;62922;-6.168;106.796;2022-10-15T10:11:12;100796.56;;;31.93;59.78
74474;BME280;62922;-6.168;106.796;2022-10-15T10:16:04;100804.56;;;31.74;60.66
74474;BME280;62922;-6.168;106.796;2022-10-15T10:18:31;100805.25;;;31.71;61.24
74474;BME280;62922;-6.168;106.796;2022-10-15T10:20:59;100806.09;;;31.72;60.66
74474;BME280;62922;-6.168;106.796;2022-10-15T10:23:29;100806.41;;;31.70;60.72
74474;BME280;62922;-6.168;106.796;2022-10-15T10:25:58;100819.72;;;31.70;60.38
74474;BME280;62922;-6.168;106.796;2022-10-15T10:28:34;100831.34;;;31.68;61.12
74474;BME280;62922;-6.168;106.796;2022-10-15T10:31:03;100807.09;;;31.67;61.52
74474;BME280;62922;-6.168;106.796;2022-10-15T10:33:31;100805.81;;;31.65;61.22
74474;BME280;62922;-6.168;106.796;2022-10-15T10:35:58;100810.94;;;31.63;61.53
74474;BME280;62922;-6.168;106.796;2022-10-15T10:38:29;100815.25;;;31.60;61.54
74474;BME280;62922;-6.168;106.796;2022-10-15T10:40:55;100796.69;;;31.59;61.25
74474;BME280;62922;-6.168;106.796;2022-10-15T10:43:25;100793.38;;;31.57;61.33
74474;BME280;62922;-6.168;106.796;2022-10-15T10:45:53;100797.69;;;31.54;61.39
74474;BME280;62922;-6.168;106.796;2022-10-15T10:48:21;100791.22;;;31.54;61.20
74474;BME280;62922;-6.168;106.796;2022-10-15T10:50:47;100782.75;;;31.54;61.39
74474;BME280;62922;-6.168;106.796;2022-10-15T10:53:18;100767.84;;;31.53;61.41
74474;BME280;62922;-6.168;106.796;2022-10-15T10:55:45;100760.19;;;31.54;61.58
74474;BME280;62922;-6.168;106.796;2022-10-15T10:58:14;100755.72;;;31.53;61.31
74474;BME280;62922;-6.168;106.796;2022-10-15T11:00:43;100759.38;;;31.53;61.84
74474;BME280;62922;-6.168;106.796;2022-10-15T11:05:41;100770.19;;;31.51;61.97
74474;BME280;62922;-6.168;106.796;2022-10-15T11:10:52;100789.09;;;31.51;62.06
74474;BME280;62922;-6.168;106.796;2022-10-15T11:18:25;100828.91;;;31.49;62.90
74474;BME280;62922;-6.168;106.796;2022-10-15T11:25:58;100852.28;;;31.50;62.61
74474;BME280;62922;-6.168;106.796;2022-10-15T11:40:59;100840.03;;;31.46;63.00
74474;BME280;62922;-6.168;106.796;2022-10-15T11:53:49;100856.13;;;31.45;62.76
74474;BME280;62922;-6.168;106.796;2022-10-15T11:56:20;100857.28;;;31.44;62.83
74474;BME280;62922;-6.168;106.796;2022-10-15T11:58:50;100857.97;;;31.41;63.24
74474;BME280;62922;-6.168;106.796;2022-10-15T12:04:05;100861.13;;;31.40;63.44
74474;BME280;62922;-6.168;106.796;2022-10-15T12:06:38;100862.28;;;31.39;63.59
74474;BME280;62922;-6.168;106.796;2022-10-15T12:09:04;100862.28;;;31.39;63.08
74474;BME280;62922;-6.168;106.796;2022-10-15T12:14:05;100870.56;;;31.35;63.38
74474;BME280;62922;-6.168;106.796;2022-10-15T12:23:58;100876.69;;;31.29;64.20
74474;BME280;62922;-6.168;106.796;2022-10-15T12:28:51;100885.16;;;31.29;64.93
74474;BME280;62922;-6.168;106.796;2022-10-15T12:31:18;100894.78;;;31.28;65.11
74474;BME280;62922;-6.168;106.796;2022-10-15T12:33:51;100899.25;;;31.29;64.86
74474;BME280;62922;-6.168;106.796;2022-10-15T12:39:06;100907.53;;;31.34;64.59
74474;BME280;62922;-6.168;106.796;2022-10-15T12:41:39;100917.50;;;31.31;64.91
74474;BME280;62922;-6.168;106.796;2022-10-15T12:46:41;100919.00;;;31.29;64.83
74474;BME280;62922;-6.168;106.796;2022-10-15T12:51:56;100919.66;;;31.26;64.74
74474;BME280;62922;-6.168;106.796;2022-10-15T12:56:57;100923.97;;;31.23;65.26
74474;BME280;62922;-6.168;106.796;2022-10-15T13:04:55;100932.59;;;31.18;65.06
74474;BME280;62922;-6.168;106.796;2022-10-15T13:07:24;100942.53;;;31.16;65.22
74474;BME280;62922;-6.168;106.796;2022-10-15T13:09:50;100944.72;;;31.27;65.59
74474;BME280;62922;-6.168;106.796;2022-10-15T13:12:21;100944.06;;;31.39;65.67
74474;BME280;62922;-6.168;106.796;2022-10-15T13:14:49;100943.22;;;31.47;65.19
74474;BME280;62922;-6.168;106.796;2022-10-15T13:17:17;100942.22;;;31.43;64.74
74474;BME280;62922;-6.168;106.796;2022-10-15T13:24:50;100949.19;;;31.20;65.07
74474;BME280;62922;-6.168;106.796;2022-10-15T13:27:28;100942.22;;;31.17;64.91
74474;BME280;62922;-6.168;106.796;2022-10-15T13:29:59;100959.47;;;31.16;65.11
74474;BME280;62922;-6.168;106.796;2022-10-15T13:32:30;100948.53;;;31.14;65.17
74474;BME280;62922;-6.168;106.796;2022-10-15T13:34:57;100954.84;;;31.11;65.54
74474;BME280;62922;-6.168;106.796;2022-10-15T13:37:27;100961.09;;;31.08;65.49
74474;BME280;62922;-6.168;106.796;2022-10-15T13:39:54;100965.94;;;31.08;65.16
74474;BME280;62922;-6.168;106.796;2022-10-15T13:42:22;100957.28;;;31.04;65.15
74474;BME280;62922;-6.168;106.796;2022-10-15T13:52:40;100972.06;;;31.01;64.95
74474;BME280;62922;-6.168;106.796;2022-10-15T13:55:28;100968.91;;;31.03;64.94
74474;BME280;62922;-6.168;106.796;2022-10-15T13:58:02;100965.91;;;30.99;64.83
74474;BME280;62922;-6.168;106.796;2022-10-15T14:00:31;100970.41;;;31.00;64.82
74474;BME280;62922;-6.168;106.796;2022-10-15T14:05:35;100974.22;;;31.13;65.29
74474;BME280;62922;-6.168;106.796;2022-10-15T14:08:01;100972.75;;;31.24;65.65
74474;BME280;62922;-6.168;106.796;2022-10-15T14:10:27;100973.91;;;31.31;66.01
74474;BME280;62922;-6.168;106.796;2022-10-15T14:12:53;100979.22;;;31.33;65.71
74474;BME280;62922;-6.168;106.796;2022-10-15T14:17:52;100984.00;;;31.24;65.40
74474;BME280;62922;-6.168;106.796;2022-10-15T14:20:18;100985.34;;;31.18;65.59
74474;BME280;62922;-6.168;106.796;2022-10-15T14:22:47;100984.66;;;31.12;65.60
74474;BME280;62922;-6.168;106.796;2022-10-15T14:25:13;100990.63;;;31.11;65.30
74474;BME280;62922;-6.168;106.796;2022-10-15T14:27:43;100988.16;;;31.09;65.53
74474;BME280;62922;-6.168;106.796;2022-10-15T14:30:13;100993.47;;;31.11;65.56
74474;BME280;62922;-6.168;106.796;2022-10-15T14:32:45;101000.41;;;31.05;65.94
74474;BME280;62922;-6.168;106.796;2022-10-15T14:40:27;101009.88;;;31.09;66.68
74474;BME280;62922;-6.168;106.796;2022-10-15T14:45:23;101010.66;;;31.01;66.09
74474;BME280;62922;-6.168;106.796;2022-10-15T14:47:50;101016.66;;;30.99;66.48
74474;BME280;62922;-6.168;106.796;2022-10-15T14:50:17;101015.81;;;30.99;66.58
74474;BME280;62922;-6.168;106.796;2022-10-15T14:52:46;101016.13;;;30.97;66.16
74474;BME280;62922;-6.168;106.796;2022-10-15T14:55:15;101015.63;;;30.95;66.25
74474;BME280;62922;-6.168;106.796;2022-10-15T14:57:43;101021.28;;;30.95;65.76
74474;BME280;62922;-6.168;106.796;2022-10-15T15:00:37;101013.16;;;30.94;65.69
74474;BME280;62922;-6.168;106.796;2022-10-15T15:02:56;101012.97;;;30.90;65.47
74474;BME280;62922;-6.168;106.796;2022-10-15T15:05:25;101014.16;;;30.89;65.87
74474;BME280;62922;-6.168;106.796;2022-10-15T15:07:51;101024.25;;;30.90;65.09
74474;BME280;62922;-6.168;106.796;2022-10-15T15:10:20;101019.28;;;30.87;65.11
74474;BME280;62922;-6.168;106.796;2022-10-15T15:12:49;101021.78;;;30.89;65.39
74474;BME280;62922;-6.168;106.796;2022-10-15T15:15:17;101025.75;;;30.88;64.98
74474;BME280;62922;-6.168;106.796;2022-10-15T15:17:44;101017.59;;;30.86;65.24